Terminal Aerodrome Forecast
Issued by NWS Albuquerque, NM

Current Version | Previous Version | Text Only | Print | Product List | Glossary On
Versions: 1 2 3 4 5 6 7 8 9 10 11 12 13 14 15 16 17
000
FTUS45 KABQ 010540
TAFABQ
TAF
KABQ 010540Z 0106/0206 VRB05KT P6SM SCT090 BKN150
     FM012200 25008KT P6SM VCSH SCT090 BKN120
     FM020500 VRB05KT P6SM SCT090 BKN140=

USA.gov is the U.S. government's official web portal to all federal, state and local government web resources and services.